Airfield :
LOGIN :

Register | Disclaimer

   EN    FR    IT 

 










Legend :    VFR   Marginal VFR   IFR   Intensive IFR   Very Intensive IFR
Visi :
Ceiling :
>= 8 km
>= 3000ft
5 to 8 km
1000 to 3000 ft
1500m to 5 km
500 to 1000 ft
800 to 1500m
200 to 500 ft
< 800m
< 200 ft
Symbols :   Thunderstorms  Fog  Heavy snow  Heavy precipitations  Wind > 20 kt
SIGMETs :     Misc.  Thunderstorms  Icing  Turbulence  Mountain Waves  Volcanic Ashes







- Airport Elevation : 370 ft


EBBE - Beauvechain AB

CURRENT METAR :
  • 160855Z AUTO 25006KT 6000 FEW027/// BKN049/// 02/01 Q1012 WHT

EXPIRED METARs :
  • 160845Z AUTO 25006KT 5000 FEW038/// BKN049/// 02/01 Q1011 WHT
  • 160825Z AUTO 25007KT 5000 FEW034/// BKN050/// 02/01 Q1011 WHT
  • 160818Z AUTO 25006KT 6000 FEW014/// BKN055/// 02/01 Q1011 WHT
  • 160803Z AUTO 25006KT 4700 BR FEW014/// 01/01 Q1011 GRN
  • 160755Z AUTO 26005KT 5000 FEW017/// 01/00 Q1011 WHT
  • 160745Z AUTO 25005KT 4900 FEW045/// 01/00 Q1011 GRN
  • 160725Z AUTO 25004KT 7000 FEW041/// 01/01 Q1010 WHT
  • 160655Z AUTO 24005KT 4700 BR FEW039/// 02/01 Q1010 GRN
  • 160640Z AUTO 25005KT 3600 BR FEW039/// BKN050/// 01/01 Q1009 YLO
  • 160625Z AUTO 25005KT 3700 BR FEW044/// SCT050/// BKN070/// 02/01 Q1009 GRN
  • 160603Z AUTO 26005KT 3500 BR FEW005/// SCT070/// 01/01 Q1009 YLO

Expired Forecast.
No reported NOTAMs for that airfield.



MET'MAP, your aeronautical weather chart ! - Copyright ORBIFLY December 2007 - Disclaimer

ORBIFLY MET'MAP TEAM :

Programming & Development : Alexandra Zaïnal
Concept & Development : Baudouin d'Aumeries
Co-Development & Prog : Marc-Olivier Méhu
Technical & hardware support : Manuel Goepfert

Contact : metmap@orbifly.com




SOURCES & CREDITS :

   NOAA